You are listening to:
KPOU Ground/Tower - Poughkeepsie, New York, United States

KPOU 210253Z AUTO 15004KT 10SM CLR 19/14 A2998 RMK AO2 SLP147 T01940139 51013

If stream doesn't start automatically press the play button
If stream stops then reload player then press play